Time;durP1;ratioP1;P1;durP2;ratioP2;P2;SDS_P1;SDS_P2;PMS_P1;PMS_P2;Temp;Humidity;BMP_temperature;BMP_pressure;BME280_temperature;BME280_humidity;BME280_pressure;Samples;Min_cycle;Max_cycle;Signal;HPM_P1;HPM_P2
2022/03/08 00:01:04;;;;;;;19.33;13.63;;;;;;;0.85;53.25;99834.94;4959308;28;20203;-79
2022/03/08 00:03:31;;;;;;;19.75;14.18;;;;;;;0.79;53.54;99829.72;4955770;28;20692;-79
2022/03/08 00:05:58;;;;;;;21.45;13.85;;;;;;;0.98;53.13;99833.88;4964350;28;20188;-80
2022/03/08 00:08:24;;;;;;;17.60;13.38;;;;;;;1.01;53.04;99827.63;4960068;28;20559;-80
2022/03/08 00:10:51;;;;;;;23.00;13.57;;;;;;;0.82;53.66;99832.34;4959905;28;20184;-80
2022/03/08 00:13:18;;;;;;;18.83;13.95;;;;;;;0.80;53.81;99828.84;4960673;28;20184;-81
2022/03/08 00:15:45;;;;;;;19.02;13.35;;;;;;;0.85;53.85;99827.00;4961074;28;20272;-81
2022/03/08 00:18:13;;;;;;;19.10;14.60;;;;;;;0.92;53.32;99825.13;4968382;28;20282;-81
2022/03/08 00:20:40;;;;;;;19.30;12.80;;;;;;;0.79;53.52;99827.06;4928413;28;1087812;-81
2022/03/08 00:23:06;;;;;;;20.10;14.57;;;;;;;0.71;54.07;99826.34;4957791;28;20468;-81
2022/03/08 00:25:33;;;;;;;18.52;14.20;;;;;;;0.61;54.44;99822.91;4962104;28;20715;-81
2022/03/08 00:27:59;;;;;;;20.17;13.27;;;;;;;0.48;55.03;99826.66;4960537;28;20279;-81
2022/03/08 00:30:27;;;;;;;17.92;12.93;;;;;;;0.41;55.46;99832.03;4955065;28;20196;-81
2022/03/08 00:32:54;;;;;;;19.60;12.90;;;;;;;0.80;53.36;99832.38;4951511;28;20199;-80
2022/03/08 00:35:24;;;;;;;19.10;13.65;;;;;;;0.69;53.65;99834.28;4958313;28;20279;-80
2022/03/08 00:37:52;;;;;;;21.63;13.02;;;;;;;0.65;53.66;99823.75;4965166;28;20663;-80
2022/03/08 00:40:21;;;;;;;18.17;13.23;;;;;;;0.71;53.61;99828.97;4963415;28;20303;-80
2022/03/08 00:42:48;;;;;;;18.23;12.45;;;;;;;0.67;53.53;99828.13;4960438;28;20244;-80
2022/03/08 00:45:15;;;;;;;19.42;13.48;;;;;;;0.75;52.94;99833.34;4958459;28;20212;-80
2022/03/08 00:47:42;;;;;;;17.80;12.98;;;;;;;0.64;53.64;99830.84;4960017;28;20185;-80
2022/03/08 00:50:12;;;;;;;18.33;12.98;;;;;;;0.60;53.61;99829.13;4961985;28;20197;-80
2022/03/08 00:52:40;;;;;;;13.93;12.02;;;;;;;0.60;53.58;99831.78;4964387;28;20196;-80
2022/03/08 00:55:09;;;;;;;18.27;13.38;;;;;;;0.62;53.33;99836.16;4956612;28;20207;-80
2022/03/08 00:57:36;;;;;;;19.65;13.23;;;;;;;0.75;53.04;99823.63;4967892;28;20197;-81
2022/03/08 01:00:03;;;;;;;18.15;12.68;;;;;;;0.62;53.64;99825.56;4957380;28;20198;-80
2022/03/08 01:02:30;;;;;;;18.17;12.95;;;;;;;0.52;54.06;99829.25;4964862;28;20208;-81
2022/03/08 01:04:56;;;;;;;21.40;13.15;;;;;;;0.59;53.74;99825.59;4959888;28;20218;-81
2022/03/08 01:07:23;;;;;;;18.45;12.32;;;;;;;0.58;54.09;99828.28;4961163;28;20189;-81
2022/03/08 01:09:51;;;;;;;17.63;13.40;;;;;;;0.49;54.38;99823.09;4960741;28;20650;-81
2022/03/08 01:12:18;;;;;;;17.55;12.43;;;;;;;0.45;54.73;99824.91;4961298;28;20625;-80
2022/03/08 01:14:44;;;;;;;17.70;12.88;;;;;;;0.43;54.73;99821.44;4960769;28;20188;-81
2022/03/08 01:17:11;;;;;;;17.98;14.30;;;;;;;0.39;54.91;99817.94;4961399;28;20194;-80
2022/03/08 01:19:38;;;;;;;20.25;13.10;;;;;;;0.50;54.68;99819.53;4954137;28;20331;-80
2022/03/08 01:22:05;;;;;;;20.48;14.13;;;;;;;0.30;55.44;99817.19;4953542;29;20578;-79
2022/03/08 01:24:31;;;;;;;18.60;12.57;;;;;;;0.39;55.27;99819.72;4953472;28;20219;-80
2022/03/08 01:27:00;;;;;;;20.45;13.27;;;;;;;0.44;54.96;99817.88;4948002;29;20657;-80
2022/03/08 01:29:26;;;;;;;20.27;13.63;;;;;;;0.64;54.38;99817.59;4956798;29;20229;-81
2022/03/08 01:31:53;;;;;;;19.48;12.52;;;;;;;0.73;53.59;99808.63;4956433;29;20205;-80
2022/03/08 01:34:19;;;;;;;18.85;12.95;;;;;;;0.79;53.39;99811.16;4956889;29;20540;-82
2022/03/08 01:36:46;;;;;;;20.83;13.55;;;;;;;0.83;52.85;99803.16;4957277;28;20185;-80
2022/03/08 01:39:13;;;;;;;18.65;13.23;;;;;;;0.83;53.06;99804.94;4956633;29;20204;-80
2022/03/08 01:41:40;;;;;;;20.50;13.85;;;;;;;0.83;52.89;99805.81;4956716;29;20192;-80
2022/03/08 01:44:10;;;;;;;19.83;13.57;;;;;;;0.78;53.01;99799.69;4956146;29;20311;-80
2022/03/08 01:46:37;;;;;;;19.98;14.30;;;;;;;0.93;52.44;99801.25;4956418;29;20193;-80
2022/03/08 01:49:04;;;;;;;19.60;14.10;;;;;;;0.80;52.66;99797.91;4956283;29;20204;-80
2022/03/08 01:51:31;;;;;;;17.80;12.18;;;;;;;0.83;52.35;99791.69;4956635;29;20288;-81
2022/03/08 01:53:57;;;;;;;18.48;11.88;;;;;;;0.81;52.42;99785.53;4948762;29;20539;-80
2022/03/08 01:56:24;;;;;;;21.95;14.23;;;;;;;0.91;51.71;99783.63;4950589;29;20192;-80
2022/03/08 01:58:51;;;;;;;18.85;13.05;;;;;;;1.00;51.37;99780.81;4955083;29;20201;-79
2022/03/08 02:01:19;;;;;;;21.05;13.18;;;;;;;0.93;51.50;99776.53;4956687;29;20279;-82
2022/03/08 02:03:45;;;;;;;20.70;12.90;;;;;;;0.89;51.61;99772.16;4955993;29;20241;-80
2022/03/08 02:06:12;;;;;;;16.98;12.65;;;;;;;0.91;51.52;99771.25;4955789;29;20232;-80
2022/03/08 02:08:39;;;;;;;17.42;12.40;;;;;;;0.97;51.30;99762.28;4955661;29;20201;-81
2022/03/08 02:11:05;;;;;;;16.17;11.75;;;;;;;0.80;51.49;99765.22;4948555;29;20204;-80
2022/03/08 02:13:32;;;;;;;22.83;12.73;;;;;;;0.68;52.03;99762.75;4956251;29;20214;-80
2022/03/08 02:15:59;;;;;;;18.50;13.65;;;;;;;0.93;51.84;99766.78;4955410;29;20199;-80
2022/03/08 02:18:27;;;;;;;19.45;13.27;;;;;;;1.01;50.96;99753.38;4955512;28;20227;-80
2022/03/08 02:20:53;;;;;;;20.08;13.52;;;;;;;1.00;50.88;99752.53;4955452;29;20199;-81
2022/03/08 02:23:21;;;;;;;20.02;13.48;;;;;;;0.92;51.25;99754.41;4947850;29;20200;-81
2022/03/08 02:25:48;;;;;;;16.83;12.90;;;;;;;0.89;50.97;99762.44;4955217;29;20631;-80
2022/03/08 02:28:16;;;;;;;15.05;12.02;;;;;;;0.87;51.45;99750.09;4955684;29;20197;-80
2022/03/08 02:30:42;;;;;;;15.60;11.95;;;;;;;1.02;50.90;99756.03;4955417;29;20189;-81
2022/03/08 02:33:09;;;;;;;19.35;12.70;;;;;;;1.00;50.81;99741.06;4955469;29;20200;-81
2022/03/08 02:35:36;;;;;;;19.23;12.20;;;;;;;1.06;50.34;99754.19;4955297;28;20659;-82
2022/03/08 02:38:05;;;;;;;16.13;12.63;;;;;;;0.93;50.85;99753.53;4955312;29;20265;-80
2022/03/08 02:40:36;;;;;;;16.83;11.23;;;;;;;0.95;50.66;99753.47;4955418;29;20219;-80
2022/03/08 02:43:04;;;;;;;14.63;12.27;;;;;;;1.00;50.76;99757.81;4953558;29;20223;-80
2022/03/08 02:45:31;;;;;;;18.42;13.43;;;;;;;0.96;50.53;99750.81;4955471;29;20697;-80
2022/03/08 02:47:58;;;;;;;16.88;12.43;;;;;;;1.12;50.33;99745.25;4943244;29;20191;-80
2022/03/08 02:50:25;;;;;;;19.58;13.10;;;;;;;1.04;50.37;99746.28;4955131;29;20199;-80
2022/03/08 02:52:53;;;;;;;16.17;12.20;;;;;;;1.00;50.64;99738.41;4954517;29;20550;-80
2022/03/08 02:55:24;;;;;;;16.50;12.15;;;;;;;0.97;50.67;99744.63;4955166;29;20544;-80
2022/03/08 02:57:53;;;;;;;18.85;13.35;;;;;;;0.91;50.60;99736.78;4947854;29;20189;-80
2022/03/08 03:00:21;;;;;;;17.52;13.07;;;;;;;0.82;51.28;99731.63;4955305;29;20990;-80
2022/03/08 03:02:48;;;;;;;15.75;11.98;;;;;;;0.88;50.75;99726.19;4954349;29;20217;-80
2022/03/08 03:05:15;;;;;;;17.70;12.48;;;;;;;0.87;50.82;99728.91;4955121;29;20196;-80
2022/03/08 03:07:42;;;;;;;24.00;13.70;;;;;;;0.77;51.45;99728.16;4954662;29;20803;-80
2022/03/08 03:10:12;;;;;;;20.40;12.90;;;;;;;0.96;50.53;99723.44;4954307;29;20544;-81
2022/03/08 03:12:39;;;;;;;16.88;11.50;;;;;;;0.90;50.76;99721.75;4954111;29;20201;-79
2022/03/08 03:15:10;;;;;;;17.23;11.77;;;;;;;0.77;51.45;99712.25;4954393;29;20537;-80
2022/03/08 03:17:38;;;;;;;19.80;12.23;;;;;;;0.76;51.37;99723.75;4954714;29;20232;-80
2022/03/08 03:20:06;;;;;;;17.15;11.73;;;;;;;0.87;51.13;99720.94;4953816;28;20315;-80
2022/03/08 03:22:32;;;;;;;18.48;12.40;;;;;;;0.61;52.01;99723.13;4954221;29;20284;-80
2022/03/08 03:24:59;;;;;;;18.52;12.88;;;;;;;0.71;51.75;99726.50;4954734;29;20199;-80
2022/03/08 03:27:26;;;;;;;16.77;12.88;;;;;;;0.78;51.47;99728.13;4954269;29;20203;-80
2022/03/08 03:29:52;;;;;;;18.15;13.10;;;;;;;0.60;51.81;99715.19;4954000;29;20200;-80
2022/03/08 03:32:22;;;;;;;19.33;13.07;;;;;;;0.51;52.28;99726.78;4954315;29;20238;-80
2022/03/08 03:34:49;;;;;;;21.33;12.57;;;;;;;0.65;51.92;99726.56;4954791;29;20217;-81
2022/03/08 03:37:16;;;;;;;17.92;11.77;;;;;;;0.80;51.32;99720.16;4954268;29;20207;-81
2022/03/08 03:39:43;;;;;;;17.52;12.18;;;;;;;0.82;51.30;99721.00;4950625;29;20284;-80
2022/03/08 03:42:09;;;;;;;17.95;11.65;;;;;;;0.83;51.01;99715.66;4953727;29;20200;-81
2022/03/08 03:44:36;;;;;;;18.08;11.95;;;;;;;0.68;51.76;99712.41;4953871;29;20205;-81
2022/03/08 03:47:03;;;;;;;17.90;12.27;;;;;;;0.59;51.83;99711.66;4954331;28;20661;-81
2022/03/08 03:49:31;;;;;;;16.83;11.82;;;;;;;0.71;51.72;99709.72;4953705;29;20695;-81
2022/03/08 03:51:57;;;;;;;18.55;12.20;;;;;;;0.64;52.05;99706.28;4946613;29;20263;-80
2022/03/08 03:54:24;;;;;;;16.05;12.10;;;;;;;0.59;52.18;99703.72;4953722;29;20189;-81
2022/03/08 03:56:51;;;;;;;18.48;12.55;;;;;;;0.59;52.36;99695.75;4954251;29;20559;-82
2022/03/08 03:59:18;;;;;;;18.67;11.80;;;;;;;0.66;52.06;99703.63;4953583;29;20284;-81
2022/03/08 04:01:44;;;;;;;16.42;11.65;;;;;;;0.58;52.05;99701.94;4953943;29;20524;-81
2022/03/08 04:04:11;;;;;;;20.48;10.50;;;;;;;0.54;52.20;99700.28;4943628;29;20560;-81
2022/03/08 04:06:39;;;;;;;17.58;12.85;;;;;;;0.39;52.74;99696.06;4953652;29;20678;-80
2022/03/08 04:09:06;;;;;;;16.17;10.98;;;;;;;0.47;52.45;99701.22;4953299;29;20193;-81
2022/03/08 04:11:33;;;;;;;15.43;11.25;;;;;;;0.51;52.61;99705.59;4954129;29;20239;-81
2022/03/08 04:14:00;;;;;;;17.00;11.82;;;;;;;0.52;52.09;99706.47;4954244;29;20670;-80
2022/03/08 04:16:27;;;;;;;17.05;12.18;;;;;;;0.48;52.31;99703.00;4953350;29;20201;-81
2022/03/08 04:18:53;;;;;;;17.35;12.15;;;;;;;0.54;52.13;99700.28;4953850;28;20323;-81
2022/03/08 04:21:20;;;;;;;21.55;11.43;;;;;;;0.61;52.47;99699.25;4968815;28;20649;-81
2022/03/08 04:23:48;;;;;;;16.40;11.43;;;;;;;0.80;51.24;99685.72;4969398;28;20295;-81
2022/03/08 04:26:15;;;;;;;16.08;11.85;;;;;;;0.77;51.35;99696.34;4967443;28;20283;-81
2022/03/08 04:28:42;;;;;;;16.65;10.90;;;;;;;0.77;51.58;99697.25;4963049;28;20207;-81
2022/03/08 04:31:08;;;;;;;15.25;10.77;;;;;;;0.82;51.37;99694.50;4968367;28;20247;-81
2022/03/08 04:33:35;;;;;;;16.35;11.50;;;;;;;0.59;51.74;99697.53;4967732;28;20618;-81
2022/03/08 04:36:02;;;;;;;13.15;11.05;;;;;;;0.73;51.30;99700.84;4968316;28;20556;-81
2022/03/08 04:38:29;;;;;;;16.85;11.55;;;;;;;0.50;52.47;99695.91;4968368;28;20569;-81
2022/03/08 04:40:57;;;;;;;15.88;11.18;;;;;;;0.34;52.97;99712.91;4970842;28;20287;-80
2022/03/08 04:43:24;;;;;;;24.48;11.90;;;;;;;0.25;53.20;99706.00;4959333;28;20217;-81
2022/03/08 04:45:50;;;;;;;15.45;11.02;;;;;;;0.24;53.73;99709.53;4967176;28;20189;-80
2022/03/08 04:48:17;;;;;;;15.52;11.43;;;;;;;0.19;54.05;99712.25;4968212;28;20200;-80
2022/03/08 04:50:44;;;;;;;17.75;11.07;;;;;;;0.09;54.84;99712.38;4967814;28;20229;-81
2022/03/08 04:53:10;;;;;;;14.10;10.60;;;;;;;-0.02;55.28;99721.38;4965823;28;20196;-81
2022/03/08 04:55:37;;;;;;;16.63;11.48;;;;;;;-0.08;56.16;99720.56;4965507;28;20275;-81
2022/03/08 04:58:05;;;;;;;17.73;11.95;;;;;;;-0.12;56.35;99718.84;4967749;28;20200;-80
2022/03/08 05:00:32;;;;;;;15.30;11.73;;;;;;;-0.08;56.69;99720.56;4968371;28;20199;-81
2022/03/08 05:02:59;;;;;;;17.42;11.57;;;;;;;-0.08;57.10;99724.09;4961815;28;20182;-80
2022/03/08 05:05:25;;;;;;;15.65;11.82;;;;;;;0.11;56.56;99737.94;4967143;28;20275;-81
2022/03/08 05:07:52;;;;;;;18.17;12.95;;;;;;;0.10;56.92;99738.00;4976383;28;20552;-81
2022/03/08 05:10:19;;;;;;;20.52;12.55;;;;;;;-0.15;57.87;99732.13;4970843;28;20192;-81
2022/03/08 05:12:46;;;;;;;16.45;12.50;;;;;;;-0.10;57.70;99723.22;4971335;28;20283;-81
2022/03/08 05:15:14;;;;;;;16.35;11.75;;;;;;;-0.27;58.32;99727.84;4969793;28;20283;-81
2022/03/08 05:17:40;;;;;;;18.23;12.02;;;;;;;-0.16;58.85;99719.78;4968454;28;20553;-81
2022/03/08 05:20:08;;;;;;;19.60;12.45;;;;;;;-0.25;59.07;99724.31;4970098;28;20699;-80
2022/03/08 05:22:35;;;;;;;15.23;11.32;;;;;;;-0.25;58.69;99724.31;4969568;28;20223;-80
2022/03/08 05:25:02;;;;;;;17.83;11.65;;;;;;;-0.12;58.57;99717.06;4962874;28;20256;-80
2022/03/08 05:27:28;;;;;;;33.15;14.30;;;;;;;0.00;58.66;99721.34;4970807;28;20199;-81
2022/03/08 05:29:55;;;;;;;24.58;13.18;;;;;;;-0.14;58.77;99715.34;4962908;28;20590;-80
2022/03/08 05:32:23;;;;;;;18.05;11.45;;;;;;;-0.09;58.52;99713.50;4969987;28;20629;-80
2022/03/08 05:34:50;;;;;;;18.83;11.68;;;;;;;-0.16;59.06;99711.84;4969584;28;20280;-80
2022/03/08 05:37:17;;;;;;;18.48;11.70;;;;;;;-0.13;58.87;99709.19;4969056;28;20197;-80
2022/03/08 05:39:43;;;;;;;17.63;12.00;;;;;;;-0.10;59.36;99707.34;4968918;28;20203;-81
2022/03/08 05:42:10;;;;;;;16.83;12.00;;;;;;;-0.06;59.19;99703.78;4969145;28;20196;-80
2022/03/08 05:44:38;;;;;;;17.95;12.27;;;;;;;-0.08;59.25;99697.63;4968859;28;20670;-81
2022/03/08 05:47:05;;;;;;;18.60;12.55;;;;;;;-0.08;58.53;99707.34;4964009;28;20196;-80
2022/03/08 05:49:33;;;;;;;19.17;13.23;;;;;;;0.02;58.16;99705.44;4964343;28;20188;-80
2022/03/08 05:52:00;;;;;;;17.70;11.88;;;;;;;0.15;57.95;99707.88;4967719;28;20200;-79
2022/03/08 05:54:27;;;;;;;18.85;11.40;;;;;;;0.24;57.46;99708.66;4957903;28;20643;-80
2022/03/08 05:56:54;;;;;;;18.15;11.40;;;;;;;0.19;56.77;99704.31;4957613;28;20236;-80
2022/03/08 05:59:21;;;;;;;16.42;11.95;;;;;;;0.44;55.55;99711.91;4960008;28;20191;-79
2022/03/08 06:01:47;;;;;;;15.65;10.98;;;;;;;0.18;57.09;99707.88;4975226;28;20208;-79
2022/03/08 06:04:14;;;;;;;18.35;11.80;;;;;;;0.02;58.19;99706.28;4966465;28;20221;-79
2022/03/08 06:06:42;;;;;;;17.67;11.25;;;;;;;-0.08;58.99;99709.97;4962050;28;20284;-80
2022/03/08 06:09:08;;;;;;;17.15;11.45;;;;;;;-0.09;58.37;99710.88;4979729;28;20730;-78
2022/03/08 06:11:35;;;;;;;18.05;12.15;;;;;;;-0.16;58.88;99703.91;4971358;28;20243;-78
2022/03/08 06:14:02;;;;;;;18.40;10.93;;;;;;;-0.03;58.67;99703.72;4971007;28;20185;-79
2022/03/08 06:16:28;;;;;;;15.73;11.57;;;;;;;0.15;57.88;99707.00;4971235;28;20268;-79
2022/03/08 06:18:56;;;;;;;16.13;12.65;;;;;;;0.32;57.55;99712.09;4966695;28;20230;-81
2022/03/08 06:21:23;;;;;;;15.60;11.40;;;;;;;0.32;56.26;99709.44;4974357;28;20199;-79
2022/03/08 06:23:51;;;;;;;16.90;11.23;;;;;;;0.31;56.29;99710.31;4974327;28;20204;-80
2022/03/08 06:26:18;;;;;;;14.73;9.43;;;;;;;0.34;55.98;99719.09;4974226;28;20184;-80
2022/03/08 06:28:44;;;;;;;16.90;11.75;;;;;;;0.25;56.45;99718.34;4974158;28;20295;-80
2022/03/08 06:31:11;;;;;;;20.17;14.32;;;;;;;0.39;56.70;99719.03;4974265;28;20598;-81
2022/03/08 06:33:38;;;;;;;22.13;12.13;;;;;;;0.48;56.90;99724.19;4973463;28;20243;-81
2022/03/08 06:36:05;;;;;;;14.90;11.27;;;;;;;0.49;56.21;99725.06;4970064;28;20189;-82
2022/03/08 06:38:31;;;;;;;15.98;10.80;;;;;;;0.37;55.31;99734.06;4970972;28;20203;-81
2022/03/08 06:40:59;;;;;;;14.65;12.15;;;;;;;0.47;56.45;99732.16;4973755;28;20282;-81
2022/03/08 06:43:26;;;;;;;16.98;10.25;;;;;;;0.63;56.02;99736.31;4972237;28;20295;-82
2022/03/08 06:45:53;;;;;;;12.48;10.13;;;;;;;0.48;54.83;99742.75;4971751;28;20655;-79
2022/03/08 06:48:19;;;;;;;18.00;11.02;;;;;;;0.46;55.06;99739.25;4967257;28;20206;-80
2022/03/08 06:50:46;;;;;;;15.23;11.10;;;;;;;0.39;55.34;99749.03;4972144;28;20195;-80
2022/03/08 06:53:12;;;;;;;18.35;11.50;;;;;;;0.41;54.97;99749.91;4973267;28;20311;-81
2022/03/08 06:55:39;;;;;;;19.25;11.95;;;;;;;0.45;55.13;99740.13;4970755;28;20198;-80
2022/03/08 06:58:07;;;;;;;15.15;10.70;;;;;;;0.43;55.06;99744.59;4972675;28;20283;-80
2022/03/08 07:00:34;;;;;;;14.40;11.43;;;;;;;0.35;55.79;99743.81;4972006;28;20204;-80
2022/03/08 07:03:00;;;;;;;17.98;11.80;;;;;;;0.40;55.85;99739.31;4968057;28;20204;-80
2022/03/08 07:05:27;;;;;;;16.35;10.85;;;;;;;0.29;55.95;99741.25;4974493;28;20245;-80
2022/03/08 07:07:54;;;;;;;11.82;9.52;;;;;;;0.40;56.04;99745.50;4968293;28;20566;-79
2022/03/08 07:10:20;;;;;;;13.60;10.63;;;;;;;0.30;56.55;99737.72;4971922;28;20203;-80
2022/03/08 07:12:47;;;;;;;15.60;11.05;;;;;;;0.37;56.69;99739.38;4971723;28;20192;-80
2022/03/08 07:15:15;;;;;;;14.68;10.98;;;;;;;0.63;55.96;99744.28;4970670;28;20185;-80
2022/03/08 07:17:45;;;;;;;16.10;10.20;;;;;;;0.89;53.37;99738.56;4961617;28;20658;-80
2022/03/08 07:20:13;;;;;;;13.50;9.30;;;;;;;1.14;51.00;99731.06;4973310;28;20582;-80
2022/03/08 07:22:40;;;;;;;12.73;9.20;;;;;;;1.29;50.61;99726.38;4964016;28;20275;-80
2022/03/08 07:25:15;;;;;;;12.23;9.40;;;;;;;1.40;49.83;99725.31;4970938;28;20737;-80
2022/03/08 07:27:41;;;;;;;11.10;8.48;;;;;;;1.54;48.87;99740.06;4960603;28;20203;-80
2022/03/08 07:30:11;;;;;;;11.18;9.00;;;;;;;1.56;49.42;99748.88;4973576;28;20202;-80
2022/03/08 07:32:39;;;;;;;12.25;9.60;;;;;;;1.55;49.07;99749.78;4968433;28;20284;-80
2022/03/08 07:35:06;;;;;;;13.65;9.48;;;;;;;1.68;48.97;99753.97;4973735;28;20604;-80
2022/03/08 07:37:35;;;;;;;12.90;10.02;;;;;;;1.83;49.00;99750.09;4967121;28;20521;-80
2022/03/08 07:40:02;;;;;;;13.85;10.15;;;;;;;1.72;48.56;99760.97;4963203;28;20676;-81
2022/03/08 07:42:28;;;;;;;22.73;9.38;;;;;;;1.65;48.71;99764.63;4971275;28;20638;-80
2022/03/08 07:44:55;;;;;;;11.68;9.73;;;;;;;1.65;49.04;99768.16;4970709;28;20215;-82
2022/03/08 07:47:24;;;;;;;16.42;9.60;;;;;;;1.71;49.24;99766.28;4979588;28;20287;-81
2022/03/08 07:49:52;;;;;;;14.98;10.43;;;;;;;1.85;48.48;99753.59;4974105;28;20703;-82
2022/03/08 07:52:18;;;;;;;12.63;10.15;;;;;;;2.01;48.17;99749.75;4966189;28;20188;-85
2022/03/08 07:54:48;;;;;;;13.25;9.80;;;;;;;2.13;47.67;99759.25;4970744;28;20345;-83
2022/03/08 07:57:15;;;;;;;13.80;8.88;;;;;;;2.21;47.21;99751.09;4962026;28;20197;-81
2022/03/08 07:59:41;;;;;;;12.73;8.63;;;;;;;2.34;47.31;99752.59;4966582;28;20211;-81
2022/03/08 08:02:09;;;;;;;12.60;8.43;;;;;;;2.44;46.50;99750.59;4967250;28;20299;-80
2022/03/08 08:04:35;;;;;;;12.48;8.82;;;;;;;2.51;46.46;99741.59;4973139;28;20647;-80
2022/03/08 08:07:04;;;;;;;15.38;9.32;;;;;;;2.50;46.28;99748.66;4967410;28;20185;-79
2022/03/08 08:09:30;;;;;;;11.73;7.85;;;;;;;2.69;45.95;99745.56;4958450;28;20203;-79
2022/03/08 08:11:57;;;;;;;10.95;8.43;;;;;;;2.89;46.09;99759.28;4971990;28;20199;-79
2022/03/08 08:14:43;;;;;;;12.60;8.55;;;;;;;2.89;45.97;99750.41;4973503;28;20545;-79
2022/03/08 08:17:18;;;;;;;11.15;8.85;;;;;;;3.04;45.09;99758.03;4971334;28;20466;-79
2022/03/08 08:19:57;;;;;;;11.57;8.65;;;;;;;3.23;45.14;99749.56;4971416;28;20235;-78
2022/03/08 08:22:25;;;;;;;10.43;7.90;;;;;;;3.32;44.95;99757.31;4971653;28;20262;-81
2022/03/08 08:24:51;;;;;;;11.57;8.35;;;;;;;3.49;44.30;99748.91;4971583;28;20249;-81
2022/03/08 08:27:18;;;;;;;15.82;8.43;;;;;;;3.52;44.17;99747.00;4953061;29;20195;-81
2022/03/08 08:29:45;;;;;;;9.52;8.10;;;;;;;3.60;44.40;99740.63;4972584;28;20653;-84
2022/03/08 08:32:13;;;;;;;9.02;7.20;;;;;;;3.66;44.21;99740.44;4964479;28;20278;-82
2022/03/08 08:34:39;;;;;;;10.30;7.75;;;;;;;3.72;43.90;99740.28;4969904;28;20273;-83
2022/03/08 08:37:07;;;;;;;9.23;7.90;;;;;;;3.92;43.94;99739.72;4971925;28;20209;-82
2022/03/08 08:39:35;;;;;;;9.88;7.78;;;;;;;4.03;43.55;99739.41;4965935;28;20212;-80
2022/03/08 08:42:01;;;;;;;11.90;8.52;;;;;;;4.02;43.56;99742.97;4968839;28;20720;-80
2022/03/08 08:44:28;;;;;;;10.88;7.78;;;;;;;4.09;43.65;99750.78;4964583;28;20220;-81
2022/03/08 08:46:56;;;;;;;10.93;7.15;;;;;;;4.30;43.10;99745.72;4970286;28;20193;-80
2022/03/08 08:49:25;;;;;;;11.70;7.50;;;;;;;4.26;42.69;99744.94;4968199;28;20647;-80
2022/03/08 08:51:51;;;;;;;9.57;8.43;;;;;;;4.39;42.67;99742.78;4961739;28;20194;-81
2022/03/08 08:54:18;;;;;;;10.90;8.75;;;;;;;4.45;42.68;99742.56;4971666;28;20184;-81
2022/03/08 08:56:46;;;;;;;11.27;9.05;;;;;;;4.47;42.65;99742.53;4963707;28;20196;-78
2022/03/08 08:59:13;;;;;;;13.95;8.13;;;;;;;4.44;41.95;99742.63;4971565;28;20196;-78
2022/03/08 09:01:39;;;;;;;10.02;7.85;;;;;;;4.51;42.28;99736.19;4972213;28;20197;-82
2022/03/08 09:04:06;;;;;;;12.95;8.13;;;;;;;4.67;41.64;99724.09;4965080;28;20648;-81
2022/03/08 09:06:33;;;;;;;10.75;8.25;;;;;;;4.68;41.70;99727.63;4968512;28;20207;-78
2022/03/08 09:09:00;;;;;;;9.32;6.95;;;;;;;4.68;41.36;99731.19;4972246;28;20628;-82
2022/03/08 09:11:28;;;;;;;11.82;8.23;;;;;;;4.66;41.45;99727.72;4972312;28;20229;-81
2022/03/08 09:13:56;;;;;;;14.82;7.75;;;;;;;4.87;41.32;99727.94;4963506;28;20197;-81
2022/03/08 09:16:28;;;;;;;10.48;8.68;;;;;;;4.92;40.62;99724.19;4968128;28;20195;-80
2022/03/08 09:18:54;;;;;;;10.02;8.40;;;;;;;4.96;40.72;99730.31;4971462;28;20319;-80
2022/03/08 09:21:21;;;;;;;9.98;7.82;;;;;;;5.01;40.93;99739.00;4971742;28;20210;-79
2022/03/08 09:23:48;;;;;;;9.15;8.10;;;;;;;5.13;40.99;99722.63;4971932;28;20283;-81
2022/03/08 09:26:14;;;;;;;8.93;7.10;;;;;;;5.22;40.62;99732.97;4969066;28;20212;-79
2022/03/08 09:28:41;;;;;;;10.77;8.50;;;;;;;5.30;41.07;99724.69;4971662;28;20214;-79
2022/03/08 09:31:09;;;;;;;8.88;7.65;;;;;;;5.41;40.22;99727.00;4972657;28;20216;-81
2022/03/08 09:33:36;;;;;;;10.40;8.73;;;;;;;5.61;40.04;99712.94;4973179;28;20364;-82
2022/03/08 09:36:02;;;;;;;9.57;7.45;;;;;;;5.78;40.09;99696.28;4972819;28;20706;-83
2022/03/08 09:38:29;;;;;;;9.85;8.05;;;;;;;5.63;39.89;99711.94;4956344;28;20187;-80
2022/03/08 09:40:56;;;;;;;8.90;7.43;;;;;;;5.60;39.60;99711.19;4972256;28;20533;-83
2022/03/08 09:43:23;;;;;;;8.50;7.55;;;;;;;5.73;39.52;99701.78;4969119;28;20207;-80
2022/03/08 09:45:49;;;;;;;8.55;7.45;;;;;;;5.88;39.08;99703.03;4965155;28;20208;-81
2022/03/08 09:48:19;;;;;;;10.75;7.88;;;;;;;5.94;39.06;99700.16;4972760;28;20597;-82
2022/03/08 09:50:46;;;;;;;9.50;8.00;;;;;;;5.97;39.32;99705.41;4971305;28;20277;-82
2022/03/08 09:53:13;;;;;;;10.70;8.48;;;;;;;5.98;38.86;99701.78;4975095;28;20208;-84
2022/03/08 09:55:40;;;;;;;9.82;8.13;;;;;;;6.05;38.97;99697.06;4969815;28;20189;-81
2022/03/08 09:58:06;;;;;;;8.70;7.80;;;;;;;6.31;38.64;99700.53;4970388;28;20200;-80
2022/03/08 10:00:33;;;;;;;9.32;8.25;;;;;;;6.28;38.10;99703.34;4974373;28;20291;-79
2022/03/08 10:03:01;;;;;;;10.55;8.20;;;;;;;6.45;38.06;99704.44;4968723;28;20286;-83
2022/03/08 10:05:37;;;;;;;11.15;8.60;;;;;;;6.43;38.21;99706.28;4974200;28;20217;-85
2022/03/08 10:08:11;;;;;;;11.52;7.95;;;;;;;6.58;38.14;99710.19;4966284;28;20195;-84
2022/03/08 10:10:50;;;;;;;9.48;8.40;;;;;;;6.82;37.49;99704.75;4981515;28;20582;-84
2022/03/08 10:16:09;;;;;;;11.98;8.20;;;;;;;6.97;37.37;99701.44;4974863;28;20199;-84
2022/03/08 10:18:38;;;;;;;8.93;7.90;;;;;;;6.87;37.10;99700.97;4977087;28;20188;-82
2022/03/08 10:21:25;;;;;;;9.50;7.90;;;;;;;6.88;37.22;99718.75;4957221;28;20189;-85
2022/03/08 10:23:52;;;;;;;9.15;7.93;;;;;;;7.02;37.09;99703.94;4975212;28;20200;-84
2022/03/08 10:26:19;;;;;;;10.80;8.15;;;;;;;6.97;37.01;99697.91;4977464;28;20203;-83
2022/03/08 10:28:48;;;;;;;10.10;8.70;;;;;;;6.82;37.15;99700.25;4972896;28;20252;-85
2022/03/08 10:31:16;;;;;;;9.52;8.40;;;;;;;7.01;37.32;99699.50;4976352;28;20199;-84
2022/03/08 10:33:43;;;;;;;9.27;7.47;;;;;;;7.18;36.80;99702.34;4974522;28;20207;-83
2022/03/08 10:36:16;;;;;;;10.27;9.00;;;;;;;7.41;36.56;99695.13;4972779;28;20615;-82
2022/03/08 10:39:12;;;;;;;8.60;7.70;;;;;;;7.52;36.51;99696.38;4975321;28;21020;-83
2022/03/08 10:41:50;;;;;;;10.00;8.10;;;;;;;7.64;36.72;99691.41;4972490;28;20199;-83
2022/03/08 10:44:19;;;;;;;10.07;7.80;;;;;;;7.51;36.33;99700.00;4981926;28;20271;-83
2022/03/08 10:47:00;;;;;;;9.38;8.20;;;;;;;7.49;36.23;99699.22;4962349;28;20220;-83
2022/03/08 10:49:27;;;;;;;11.40;8.80;;;;;;;7.64;35.97;99681.59;4966807;28;20196;-81
2022/03/08 10:52:01;;;;;;;11.93;8.93;;;;;;;7.77;36.01;99689.94;4974357;28;20193;-82
2022/03/08 10:54:27;;;;;;;10.63;8.45;;;;;;;7.98;35.82;99682.72;4972389;28;20199;-79
2022/03/08 10:56:56;;;;;;;8.32;7.53;;;;;;;7.82;35.92;99682.53;4965150;28;20280;-82
2022/03/08 10:59:23;;;;;;;11.88;9.18;;;;;;;7.79;36.05;99684.50;4967833;28;20670;-81
2022/03/08 11:01:50;;;;;;;15.73;9.23;;;;;;;7.87;35.86;99685.06;4970932;28;20282;-81
2022/03/08 11:04:18;;;;;;;11.40;9.20;;;;;;;7.75;36.13;99682.91;4968954;28;20189;-81
2022/03/08 11:06:47;;;;;;;10.63;9.10;;;;;;;7.99;35.82;99683.59;4974980;28;20590;-81
2022/03/08 11:09:15;;;;;;;9.70;8.40;;;;;;;7.98;35.57;99679.16;4974796;28;20184;-81
2022/03/08 11:11:42;;;;;;;9.60;8.40;;;;;;;7.88;36.18;99676.06;4973861;28;20199;-81
2022/03/08 11:14:09;;;;;;;9.55;8.52;;;;;;;7.73;35.72;99680.28;4969963;28;20210;-82
2022/03/08 11:16:36;;;;;;;12.75;11.38;;;;;;;7.94;36.02;99690.03;4975316;28;20223;-81
2022/03/08 11:19:05;;;;;;;9.82;8.57;;;;;;;8.10;35.55;99681.31;4973179;28;20314;-81
2022/03/08 11:21:34;;;;;;;17.98;8.55;;;;;;;7.90;35.52;99683.09;4971263;28;20274;-81
2022/03/08 11:24:02;;;;;;;10.85;8.70;;;;;;;7.74;36.08;99682.03;4970133;28;20201;-82
2022/03/08 11:26:34;;;;;;;9.48;7.70;;;;;;;8.15;35.67;99680.13;4974889;28;20208;-81
2022/03/08 11:29:03;;;;;;;12.00;10.10;;;;;;;8.35;35.34;99672.97;4967350;28;20641;-82
2022/03/08 11:31:32;;;;;;;11.25;9.43;;;;;;;8.50;35.13;99676.72;4967349;28;20231;-83
2022/03/08 11:34:05;;;;;;;9.60;8.55;;;;;;;8.48;35.15;99679.50;4968856;28;20636;-82